KHAI

Three Rivers Municipal Dr Haines Airport

Three Rivers, Michigan, USA
METAR KHAI 201616Z AUTO 12010G17KT 10SM CLR 25/17 A2997 RMK AO2 T02450171
Observed Flight Rules
Aug-20 @ 16:16 UTC (7 minutes ago) Visual Flight Rules
Wind Visibility Clouds
120° at 10 knots
 Gusting to 17 knots
10 miles
  • Clear skies
Temperatures Readings
Current 25°C / 77°F
Dewpoint 17°C / 63°F
Humidity 61%
Altimeter 29.97" Hg
Pressure 1015 hPa
Elevation 251
METAR KHAI 201616Z AUTO 12010G17KT 10SM CLR 25/17 A2997 RMK AO2 T02450171
Observed Flight Rules
Aug-20 @ 16:16 UTC
(7 minutes ago)
VFR
Wind Visibility
120° at 10 knots
 Gusting to 17 knots
10 miles
Clouds
  • Clear skies
Temperature Dewpoint
25°C / 77°F 17°C / 63°F
Humidity Altimeter Pressure
61% 29.97" Hg 1015 hPa